Buxcoast — CQEB — position and weather

sailwx.info

Track history (hours):
 
Tides and Currents Weather Stations Pressure Air Temp Water Temp Dewpoint Dewpoint Depression Visibility Wind Speed Wind Dir Waves Ship Positions

Buxcoast

Last reported at 2018-Jan-21 01:14 UTC. Time now 2018-Jan-22 08:08 UTC.
Position N 25°21' W 079°46'.

Length 300 m; draft 12.1 m.

Type: Ship. MMSI: 255805677.

Date/timePositionNaut miles runAvg speedWind from/ knotsBaromVisibWave heightAir tempDewpointWater temp
2018-Jan-21 01:14N 25°21' W 079°46'415.5
2018-Jan-21 01:00N 25°24' W 079°48'815.5
2018-Jan-21 00:30N 25°30' W 079°53'815.5
2018-Jan-21 00:00N 25°37' W 079°57'713.9
2018-Jan-20 23:30N 25°42' W 080°02'5 9.8
2018-Jan-20 23:00N 25°46' W 080°06'3 5.7
2018-Jan-20 22:30N 25°46' W 080°09'0 0.0
2018-Jan-20 21:58N 25°46' W 080°09'0 0.0
2018-Jan-20 21:28N 25°46' W 080°09'0 0.0
2018-Jan-20 20:58N 25°46' W 080°09'0 0.0
2018-Jan-20 20:30N 25°46' W 080°09'0 0.0
2018-Jan-20 19:57N 25°46' W 080°09'0 0.0
2018-Jan-20 19:30N 25°46' W 080°09'0 0.0
2018-Jan-20 19:00N 25°46' W 080°09'0 0.0
2018-Jan-20 18:29N 25°46' W 080°09'0 0.0
2018-Jan-20 17:56N 25°46' W 080°09'0 0.0
2018-Jan-20 17:26N 25°46' W 080°09'0 0.0
2018-Jan-20 16:59N 25°46' W 080°09'0 0.0
2018-Jan-20 16:29N 25°46' W 080°09'0 0.0
2018-Jan-20 15:58N 25°46' W 080°09'0 0.0
2018-Jan-20 15:22N 25°46' W 080°09'0 0.0
2018-Jan-20 14:58N 25°46' W 080°09'0 0.0
2018-Jan-20 14:28N 25°46' W 080°09'0 0.0
2018-Jan-20 14:00N 25°46' W 080°09'0 0.0
2018-Jan-20 13:30N 25°46' W 080°09'0 0.0
2018-Jan-20 13:00N 25°46' W 080°09'0 0.0
2018-Jan-20 12:30N 25°46' W 080°09'0 0.0
2018-Jan-20 12:00N 25°46' W 080°09'1 1.4
2018-Jan-20 11:30N 25°46' W 080°10'1 2.6
2018-Jan-20 11:00N 25°46' W 080°09'3 6.5
2018-Jan-20 10:30N 25°46' W 080°05'4 8.0
2018-Jan-20 10:00N 25°47' W 080°01'2 3.1
2018-Jan-20 09:30N 25°49' W 080°01'611.4
2018-Jan-20 09:00N 25°55' W 079°60'713.2
2018-Jan-20 08:30N 26°01' W 079°59'713.1
2018-Jan-20 08:00N 26°08' W 079°58'613.1
2018-Jan-20 07:30N 26°14' W 079°56'713.8
2018-Jan-20 07:00N 26°21' W 079°55'713.7
2018-Jan-20 06:30N 26°28' W 079°54'1613.4
2018-Jan-20 05:17N 26°44' W 079°53'413.8
2018-Jan-20 05:00N 26°48' W 079°53'713.5
2018-Jan-20 04:30N 26°55' W 079°53'713.4
2018-Jan-20 04:00N 27°01' W 079°53'29613.4
2018-Jan-19 05:58N 31°55' W 080°33'4 8.8
2018-Jan-19 05:30N 31°56' W 080°38'5 9.4
2018-Jan-19 05:00N 31°58' W 080°43'612.3
2018-Jan-19 04:30N 32°01' W 080°49'713.2
2018-Jan-19 04:00N 32°03' W 080°56'510.5
2018-Jan-19 03:30N 32°05' W 081°02'3 6.5
2018-Jan-19 03:00N 32°05' W 081°06'3 5.9
2018-Jan-19 02:30N 32°07' W 081°08'1 1.4
2018-Jan-19 02:00N 32°08' W 081°08'0 0.0
2018-Jan-19 01:30N 32°08' W 081°08'0 0.0
2018-Jan-19 01:00N 32°08' W 081°08'0 0.0
2018-Jan-19 00:29N 32°08' W 081°08'0 0.0
2018-Jan-18 23:59N 32°08' W 081°08'0 0.0
2018-Jan-18 23:29N 32°08' W 081°08'0 0.0
2018-Jan-18 22:59N 32°08' W 081°08'0 0.0
2018-Jan-18 21:13N 32°08' W 081°08'0 0.0
2018-Jan-18 20:58N 32°08' W 081°08'0 0.0
2018-Jan-18 20:28N 32°08' W 081°08'0 0.0
2018-Jan-18 20:00N 32°08' W 081°08'0 0.0
2018-Jan-18 19:30N 32°08' W 081°08'0 0.0
2018-Jan-18 19:00N 32°08' W 081°08'0 0.0
2018-Jan-18 18:30N 32°08' W 081°08'0 0.0
2018-Jan-18 18:00N 32°08' W 081°08'0 0.0
2018-Jan-18 17:29N 32°08' W 081°08'0 0.0
2018-Jan-18 16:59N 32°08' W 081°08'0 0.0
2018-Jan-18 16:29N 32°08' W 081°08'0 0.0
2018-Jan-18 15:59N 32°08' W 081°08'0 0.2
2018-Jan-18 15:30N 32°08' W 081°08'1 2.0
2018-Jan-18 15:00N 32°07' W 081°08'3 5.4
2018-Jan-18 14:30N 32°05' W 081°06'3 5.9
2018-Jan-18 14:00N 32°05' W 081°02'4 8.2
2018-Jan-18 13:30N 32°04' W 080°57'5 9.9
2018-Jan-18 13:00N 32°02' W 080°52'713.3
2018-Jan-18 12:30N 31°59' W 080°45'510.4
2018-Jan-18 12:01N 31°56' W 080°40'5 9.3
2018-Jan-18 11:30N 31°56' W 080°34'  
Track history (hours):
 
Tides and Currents Weather Stations Pressure Air Temp Water Temp Dewpoint Dewpoint Depression Visibility Wind Speed Wind Dir Waves Ship Positions

Buxcoast

Last reported at 2018-Jan-21 01:14 UTC. Time now 2018-Jan-22 08:08 UTC.
Position N 25°21' W 079°46'.

Length 300 m; draft 12.1 m.

Type: Ship. MMSI: 255805677.

Date/timePositionNaut miles runAvg speedWind from/ knotsBaromVisibWave heightAir tempDewpointWater temp
2018-Jan-21 01:14N 25°21' W 079°46'415.5
2018-Jan-21 01:00N 25°24' W 079°48'815.5
2018-Jan-21 00:30N 25°30' W 079°53'815.5
2018-Jan-21 00:00N 25°37' W 079°57'713.9
2018-Jan-20 23:30N 25°42' W 080°02'5 9.8
2018-Jan-20 23:00N 25°46' W 080°06'3 5.7
2018-Jan-20 22:30N 25°46' W 080°09'0 0.0
2018-Jan-20 21:58N 25°46' W 080°09'0 0.0
2018-Jan-20 21:28N 25°46' W 080°09'0 0.0
2018-Jan-20 20:58N 25°46' W 080°09'0 0.0
2018-Jan-20 20:30N 25°46' W 080°09'0 0.0
2018-Jan-20 19:57N 25°46' W 080°09'0 0.0
2018-Jan-20 19:30N 25°46' W 080°09'0 0.0
2018-Jan-20 19:00N 25°46' W 080°09'0 0.0
2018-Jan-20 18:29N 25°46' W 080°09'0 0.0
2018-Jan-20 17:56N 25°46' W 080°09'0 0.0
2018-Jan-20 17:26N 25°46' W 080°09'0 0.0
2018-Jan-20 16:59N 25°46' W 080°09'0 0.0
2018-Jan-20 16:29N 25°46' W 080°09'0 0.0
2018-Jan-20 15:58N 25°46' W 080°09'0 0.0
2018-Jan-20 15:22N 25°46' W 080°09'0 0.0
2018-Jan-20 14:58N 25°46' W 080°09'0 0.0
2018-Jan-20 14:28N 25°46' W 080°09'0 0.0
2018-Jan-20 14:00N 25°46' W 080°09'0 0.0
2018-Jan-20 13:30N 25°46' W 080°09'0 0.0
2018-Jan-20 13:00N 25°46' W 080°09'0 0.0
2018-Jan-20 12:30N 25°46' W 080°09'0 0.0
2018-Jan-20 12:00N 25°46' W 080°09'1 1.4
2018-Jan-20 11:30N 25°46' W 080°10'1 2.6
2018-Jan-20 11:00N 25°46' W 080°09'3 6.5
2018-Jan-20 10:30N 25°46' W 080°05'4 8.0
2018-Jan-20 10:00N 25°47' W 080°01'2 3.1
2018-Jan-20 09:30N 25°49' W 080°01'611.4
2018-Jan-20 09:00N 25°55' W 079°60'713.2
2018-Jan-20 08:30N 26°01' W 079°59'713.1
2018-Jan-20 08:00N 26°08' W 079°58'613.1
2018-Jan-20 07:30N 26°14' W 079°56'713.8
2018-Jan-20 07:00N 26°21' W 079°55'713.7
2018-Jan-20 06:30N 26°28' W 079°54'1613.4
2018-Jan-20 05:17N 26°44' W 079°53'413.8
2018-Jan-20 05:00N 26°48' W 079°53'713.5
2018-Jan-20 04:30N 26°55' W 079°53'713.4
2018-Jan-20 04:00N 27°01' W 079°53'29613.4
2018-Jan-19 05:58N 31°55' W 080°33'4 8.8
2018-Jan-19 05:30N 31°56' W 080°38'5 9.4
2018-Jan-19 05:00N 31°58' W 080°43'612.3
2018-Jan-19 04:30N 32°01' W 080°49'713.2
2018-Jan-19 04:00N 32°03' W 080°56'510.5
2018-Jan-19 03:30N 32°05' W 081°02'3 6.5
2018-Jan-19 03:00N 32°05' W 081°06'3 5.9
2018-Jan-19 02:30N 32°07' W 081°08'1 1.4
2018-Jan-19 02:00N 32°08' W 081°08'0 0.0
2018-Jan-19 01:30N 32°08' W 081°08'0 0.0
2018-Jan-19 01:00N 32°08' W 081°08'0 0.0
2018-Jan-19 00:29N 32°08' W 081°08'0 0.0
2018-Jan-18 23:59N 32°08' W 081°08'0 0.0
2018-Jan-18 23:29N 32°08' W 081°08'0 0.0
2018-Jan-18 22:59N 32°08' W 081°08'0 0.0
2018-Jan-18 21:13N 32°08' W 081°08'0 0.0
2018-Jan-18 20:58N 32°08' W 081°08'0 0.0
2018-Jan-18 20:28N 32°08' W 081°08'0 0.0
2018-Jan-18 20:00N 32°08' W 081°08'0 0.0
2018-Jan-18 19:30N 32°08' W 081°08'0 0.0
2018-Jan-18 19:00N 32°08' W 081°08'0 0.0
2018-Jan-18 18:30N 32°08' W 081°08'0 0.0
2018-Jan-18 18:00N 32°08' W 081°08'0 0.0
2018-Jan-18 17:29N 32°08' W 081°08'0 0.0
2018-Jan-18 16:59N 32°08' W 081°08'0 0.0
2018-Jan-18 16:29N 32°08' W 081°08'0 0.0
2018-Jan-18 15:59N 32°08' W 081°08'0 0.2
2018-Jan-18 15:30N 32°08' W 081°08'1 2.0
2018-Jan-18 15:00N 32°07' W 081°08'3 5.4
2018-Jan-18 14:30N 32°05' W 081°06'3 5.9
2018-Jan-18 14:00N 32°05' W 081°02'4 8.2
2018-Jan-18 13:30N 32°04' W 080°57'5 9.9
2018-Jan-18 13:00N 32°02' W 080°52'713.3
2018-Jan-18 12:30N 31°59' W 080°45'510.4
2018-Jan-18 12:01N 31°56' W 080°40'5 9.3
2018-Jan-18 11:30N 31°56' W 080°34'  

Dump ship's entire track history